createdAt,value
2017-05-01T00:00:25.369Z,10.4
2017-05-01T00:01:06.097Z,10.4
2017-05-01T00:01:46.861Z,10.4
2017-05-01T00:02:27.618Z,10.3
2017-05-01T00:03:08.375Z,10.31
2017-05-01T00:03:49.134Z,10.35
2017-05-01T00:04:29.919Z,10.25
2017-05-01T00:05:10.648Z,10.34
2017-05-01T00:05:51.424Z,10.34
2017-05-01T00:06:32.162Z,10.35
2017-05-01T00:07:12.912Z,10.42
2017-05-01T00:07:53.666Z,10.3
2017-05-01T00:08:34.426Z,10.31
2017-05-01T00:09:15.075Z,10.25
2017-05-01T00:09:55.760Z,10.25
2017-05-01T00:10:36.561Z,10.23
2017-05-01T00:11:17.139Z,10.23
2017-05-01T00:11:57.896Z,10.19
2017-05-01T00:12:38.678Z,10.23
2017-05-01T00:13:19.371Z,10.25
2017-05-01T00:13:59.933Z,10.26
2017-05-01T00:14:40.696Z,10.22
2017-05-01T00:15:21.444Z,10.17
2017-05-01T00:16:02.214Z,10.22
2017-05-01T00:16:42.969Z,10.26
2017-05-01T00:17:23.711Z,10.2
2017-05-01T00:18:04.483Z,10.25
2017-05-01T00:18:45.243Z,10.22
2017-05-01T00:19:25.998Z,10.23
2017-05-01T00:20:06.727Z,10.23
2017-05-01T00:20:47.487Z,10.28
2017-05-01T00:21:28.241Z,10.22
2017-05-01T00:22:08.996Z,10.28
2017-05-01T00:22:49.775Z,10.23
2017-05-01T00:23:30.511Z,10.28
2017-05-01T00:24:11.260Z,10.26
2017-05-01T00:24:51.910Z,10.23
2017-05-01T00:25:32.461Z,10.22
2017-05-01T00:26:13.246Z,10.19
2017-05-01T00:26:53.869Z,10.17
2017-05-01T00:27:34.425Z,10.25
2017-05-01T00:28:15.177Z,10.13
2017-05-01T00:28:55.929Z,10.19
2017-05-01T00:29:36.514Z,10.22
2017-05-01T00:30:17.267Z,10.17
2017-05-01T00:30:57.991Z,10.15
2017-05-01T00:31:38.555Z,10.1
2017-05-01T00:32:19.312Z,10.07
2017-05-01T00:33:00.054Z,10.12
2017-05-01T00:33:40.662Z,10.19
2017-05-01T00:34:21.458Z,10.1
2017-05-01T00:35:02.165Z,10.15
2017-05-01T00:35:42.862Z,10.05
2017-05-01T00:36:23.470Z,10.1
2017-05-01T00:37:04.248Z,10.1
2017-05-01T00:37:44.999Z,9.98
2017-05-01T00:38:26.708Z,10.05
2017-05-01T00:39:07.316Z,10.05
2017-05-01T00:39:48.090Z,10.17
2017-05-01T00:40:28.935Z,10.09
2017-05-01T00:41:09.832Z,10.19
2017-05-01T00:41:50.404Z,10.07
2017-05-01T00:42:31.157Z,10.1
2017-05-01T00:43:11.962Z,10.09
2017-05-01T00:43:53.466Z,10.09
2017-05-01T00:44:34.225Z,10.1
2017-05-01T00:45:14.978Z,10.13
2017-05-01T00:45:55.769Z,10.09
2017-05-01T00:46:36.490Z,10.12
2017-05-01T00:47:17.245Z,10.1
2017-05-01T00:47:58.001Z,10.1
2017-05-01T00:48:38.758Z,10.12
2017-05-01T00:49:19.511Z,10.1
2017-05-01T00:50:00.263Z,10.04
2017-05-01T00:50:41.020Z,10.04
2017-05-01T00:51:21.782Z,10.02
2017-05-01T00:52:02.532Z,9.99
2017-05-01T00:52:43.186Z,9.98
2017-05-01T00:53:23.845Z,9.99
2017-05-01T00:54:04.456Z,10.01
2017-05-01T00:54:45.280Z,9.95
2017-05-01T00:55:25.969Z,9.92
2017-05-01T00:56:06.656Z,9.97
2017-05-01T00:56:47.236Z,9.92
2017-05-01T00:57:27.886Z,9.97
2017-05-01T00:58:08.566Z,9.98
2017-05-01T00:58:49.271Z,9.94
2017-05-01T00:59:29.926Z,9.99
2017-05-01T01:00:10.577Z,9.95
2017-05-01T01:00:51.230Z,9.99
2017-05-01T01:01:31.925Z,9.97
2017-05-01T01:02:12.536Z,9.94
2017-05-01T01:02:53.185Z,9.98
2017-05-01T01:03:33.837Z,9.99
2017-05-01T01:04:14.496Z,9.95
2017-05-01T01:04:55.655Z,9.91
2017-05-01T01:05:36.309Z,9.95
2017-05-01T01:06:16.964Z,9.98
2017-05-01T01:06:57.647Z,9.98
2017-05-01T01:07:38.268Z,9.95
2017-05-01T01:08:18.921Z,9.94
2017-05-01T01:08:59.574Z,9.92
2017-05-01T01:09:40.150Z,9.91
2017-05-01T01:10:20.819Z,9.86
2017-05-01T01:11:01.471Z,9.89
2017-05-01T01:11:42.098Z,9.91
2017-05-01T01:12:22.756Z,9.8
2017-05-01T01:13:03.453Z,9.83
2017-05-01T01:13:44.117Z,9.79
2017-05-01T01:14:24.842Z,9.8
2017-05-01T01:15:05.399Z,9.74
2017-05-01T01:15:46.072Z,9.74
2017-05-01T01:16:27.722Z,9.79
2017-05-01T01:17:08.273Z,9.74
2017-05-01T01:17:48.940Z,9.74
2017-05-01T01:18:30.605Z,9.73
2017-05-01T01:19:11.229Z,9.82
2017-05-01T01:19:51.909Z,9.73
2017-05-01T01:20:32.616Z,9.76
2017-05-01T01:21:13.317Z,9.73
2017-05-01T01:21:53.923Z,9.74
2017-05-01T01:22:34.624Z,9.77
2017-05-01T01:23:15.277Z,9.68
2017-05-01T01:23:55.932Z,9.76
2017-05-01T01:24:36.501Z,9.69
2017-05-01T01:25:17.163Z,9.66
2017-05-01T01:25:57.888Z,9.69
2017-05-01T01:26:38.467Z,9.66
2017-05-01T01:27:19.168Z,9.69
2017-05-01T01:27:59.789Z,9.65
2017-05-01T01:28:40.381Z,9.56
2017-05-01T01:29:21.001Z,9.64
2017-05-01T01:30:01.671Z,9.55
2017-05-01T01:30:42.317Z,9.48
2017-05-01T01:31:23.984Z,9.54
2017-05-01T01:32:04.646Z,9.58
2017-05-01T01:32:45.296Z,9.59
2017-05-01T01:33:25.957Z,9.58
2017-05-01T01:34:06.593Z,9.51
2017-05-01T01:34:47.195Z,9.55
2017-05-01T01:35:27.893Z,9.46
2017-05-01T01:36:08.460Z,9.4
2017-05-01T01:36:49.114Z,9.43
2017-05-01T01:37:29.723Z,9.37
2017-05-01T01:38:10.409Z,9.41
2017-05-01T01:38:51.035Z,9.4
2017-05-01T01:39:31.628Z,9.29
2017-05-01T01:40:12.183Z,9.26
2017-05-01T01:40:52.831Z,9.28
2017-05-01T01:41:33.483Z,9.29
2017-05-01T01:42:14.138Z,9.26
2017-05-01T01:42:54.782Z,9.18
2017-05-01T01:43:36.477Z,9.21
2017-05-01T01:44:17.111Z,9.23
2017-05-01T01:44:58.680Z,9.18
2017-05-01T01:45:39.336Z,9.25
2017-05-01T01:46:19.998Z,9.21
2017-05-01T01:47:00.647Z,9.18
2017-05-01T01:47:42.319Z,9.26
2017-05-01T01:48:22.968Z,9.23
2017-05-01T01:49:03.646Z,9.21
2017-05-01T01:49:45.284Z,9.23
2017-05-01T01:50:25.962Z,9.23
2017-05-01T01:51:07.638Z,9.21
2017-05-01T01:51:48.285Z,9.21
2017-05-01T01:52:28.951Z,9.23
2017-05-01T01:53:09.597Z,9.13
2017-05-01T01:53:50.255Z,9.22
2017-05-01T01:54:30.839Z,9.29
2017-05-01T01:55:11.430Z,9.22
2017-05-01T01:55:52.006Z,9.22
2017-05-01T01:56:32.647Z,9.28
2017-05-01T01:57:13.239Z,9.28
2017-05-01T01:57:53.836Z,9.26
2017-05-01T01:58:34.426Z,9.21
2017-05-01T01:59:15.066Z,9.22
2017-05-01T01:59:55.692Z,9.21
2017-05-01T02:00:36.284Z,9.23
2017-05-01T02:01:16.917Z,9.19
2017-05-01T02:01:57.517Z,9.22
2017-05-01T02:02:38.092Z,9.22
2017-05-01T02:03:18.797Z,9.19
2017-05-01T02:03:59.507Z,9.18
2017-05-01T02:04:40.796Z,9.21
2017-05-01T02:05:21.447Z,9.19
2017-05-01T02:06:02.142Z,9.1
2017-05-01T02:06:42.732Z,9.1
2017-05-01T02:07:23.340Z,9.18
2017-05-01T02:08:03.957Z,9.1
2017-05-01T02:08:44.554Z,9.08
2017-05-01T02:09:25.112Z,9.08
2017-05-01T02:10:05.720Z,9.06
2017-05-01T02:10:46.341Z,9.03
2017-05-01T02:11:26.914Z,9.04
2017-05-01T02:12:07.564Z,9.08
2017-05-01T02:12:48.201Z,9.08
2017-05-01T02:13:28.769Z,9.06
2017-05-01T02:14:09.459Z,9.06
2017-05-01T02:14:50.053Z,9.04
2017-05-01T02:15:30.705Z,9.11
2017-05-01T02:16:11.359Z,9.06
2017-05-01T02:16:52.010Z,9.1
2017-05-01T02:17:32.665Z,9.03
2017-05-01T02:18:13.317Z,9.06
2017-05-01T02:18:53.973Z,9.04
2017-05-01T02:19:34.571Z,9.06
2017-05-01T02:20:15.194Z,8.95
2017-05-01T02:20:55.853Z,9.02
2017-05-01T02:21:36.513Z,9.1
2017-05-01T02:22:17.154Z,9.11
2017-05-01T02:22:57.827Z,9.02
2017-05-01T02:23:38.475Z,9.03
2017-05-01T02:24:19.130Z,9.08
2017-05-01T02:24:59.772Z,9.04
2017-05-01T02:25:41.461Z,9.04
2017-05-01T02:26:22.101Z,8.99
2017-05-01T02:27:02.729Z,9.08
2017-05-01T02:27:43.397Z,9.03
2017-05-01T02:28:24.056Z,8.97
2017-05-01T02:29:04.726Z,9.04
2017-05-01T02:29:45.363Z,9
2017-05-01T02:30:26.002Z,9.02
2017-05-01T02:31:07.707Z,9
2017-05-01T02:31:48.357Z,9.06
2017-05-01T02:32:28.986Z,9.06
2017-05-01T02:33:09.658Z,9.08
2017-05-01T02:33:50.339Z,8.97
2017-05-01T02:34:30.945Z,9
2017-05-01T02:35:11.584Z,9.02
2017-05-01T02:35:52.149Z,9.03
2017-05-01T02:36:32.825Z,9.03
2017-05-01T02:37:13.542Z,9.04
2017-05-01T02:37:54.131Z,9.04
2017-05-01T02:38:34.784Z,8.97
2017-05-01T02:39:15.399Z,9
2017-05-01T02:39:55.963Z,9.02
2017-05-01T02:40:36.621Z,9.03
2017-05-01T02:41:17.254Z,9.04
2017-05-01T02:41:57.863Z,8.95
2017-05-01T02:42:38.479Z,8.95
2017-05-01T02:43:19.113Z,9
2017-05-01T02:43:59.674Z,8.99
2017-05-01T02:44:40.328Z,9
2017-05-01T02:45:20.982Z,9.03
2017-05-01T02:46:01.651Z,9.03
2017-05-01T02:46:42.316Z,8.97
2017-05-01T02:47:22.942Z,9.02
2017-05-01T02:48:03.593Z,9.03
2017-05-01T02:48:44.272Z,8.95
2017-05-01T02:49:24.902Z,8.95
2017-05-01T02:50:05.617Z,8.99
2017-05-01T02:50:46.194Z,8.99
2017-05-01T02:51:26.774Z,9.04
2017-05-01T02:52:07.425Z,9
2017-05-01T02:52:47.996Z,9.02
2017-05-01T02:53:28.700Z,8.94
2017-05-01T02:54:09.293Z,9
2017-05-01T02:54:49.907Z,9.02
2017-05-01T02:55:30.620Z,8.97
2017-05-01T02:56:11.213Z,8.99
2017-05-01T02:56:51.836Z,9
2017-05-01T02:57:32.652Z,8.99
2017-05-01T02:58:13.219Z,9
2017-05-01T02:58:53.822Z,8.91
2017-05-01T02:59:34.411Z,8.95
2017-05-01T03:00:15.047Z,8.99
2017-05-01T03:00:55.684Z,8.97
2017-05-01T03:01:36.333Z,9
2017-05-01T03:02:17.010Z,9.11
2017-05-01T03:02:57.651Z,9.02
2017-05-01T03:03:38.313Z,9.1
2017-05-01T03:04:18.958Z,9.02
2017-05-01T03:04:59.594Z,8.95
2017-05-01T03:05:40.165Z,9.02
2017-05-01T03:06:20.726Z,9.03
2017-05-01T03:07:01.345Z,8.99
2017-05-01T03:07:41.923Z,9.06
2017-05-01T03:08:22.570Z,9.08
2017-05-01T03:09:03.202Z,9.03
2017-05-01T03:09:43.779Z,9.03
2017-05-01T03:10:24.437Z,9.11
2017-05-01T03:11:05.084Z,9.11
2017-05-01T03:11:45.734Z,9.13
2017-05-01T03:12:26.387Z,9.03
2017-05-01T03:13:07.043Z,9.08
2017-05-01T03:13:47.695Z,9.21
2017-05-01T03:14:28.342Z,9.25
2017-05-01T03:15:08.937Z,9.11
2017-05-01T03:15:49.630Z,9.21
2017-05-01T03:16:30.218Z,9.14
2017-05-01T03:17:10.867Z,9.31
2017-05-01T03:17:51.548Z,9.21
2017-05-01T03:18:32.239Z,9.23
2017-05-01T03:19:12.827Z,9.25
2017-05-01T03:19:53.476Z,9.22
2017-05-01T03:20:35.152Z,9.23
2017-05-01T03:21:15.793Z,9.25
2017-05-01T03:21:56.455Z,9.36
2017-05-01T03:22:37.105Z,9.28
2017-05-01T03:23:17.757Z,9.28
2017-05-01T03:23:58.399Z,9.28
2017-05-01T03:24:39.080Z,9.34
2017-05-01T03:25:19.712Z,9.37
2017-05-01T03:26:00.396Z,9.39
2017-05-01T03:26:41.031Z,9.39
2017-05-01T03:27:21.683Z,9.37
2017-05-01T03:28:02.324Z,9.39
2017-05-01T03:28:43.010Z,9.46
2017-05-01T03:29:23.620Z,9.43
2017-05-01T03:30:04.238Z,9.41
2017-05-01T03:30:44.806Z,9.43
2017-05-01T03:31:25.388Z,9.44
2017-05-01T03:32:06.048Z,9.4
2017-05-01T03:32:46.721Z,9.39
2017-05-01T03:33:27.317Z,9.41
2017-05-01T03:34:07.891Z,9.44
2017-05-01T03:34:48.548Z,9.4
2017-05-01T03:35:30.160Z,9.4
2017-05-01T03:36:10.747Z,9.4
2017-05-01T03:36:51.322Z,9.39
2017-05-01T03:37:31.971Z,9.41
2017-05-01T03:38:17.160Z,9.41
2017-05-01T03:38:58.787Z,9.4
2017-05-01T03:39:39.354Z,9.37
2017-05-01T03:40:20.016Z,9.43
2017-05-01T03:41:00.581Z,9.4
2017-05-01T03:41:43.266Z,9.4
2017-05-01T03:42:23.914Z,9.37
2017-05-01T03:43:04.490Z,9.41
2017-05-01T03:43:45.116Z,9.48
2017-05-01T03:44:25.768Z,9.43
2017-05-01T03:45:07.119Z,9.46
2017-05-01T03:45:47.866Z,9.51
2017-05-01T03:46:28.438Z,9.54
2017-05-01T03:47:09.185Z,9.54
2017-05-01T03:47:49.877Z,9.5
2017-05-01T03:48:30.577Z,9.54
2017-05-01T03:49:11.148Z,9.54
2017-05-01T03:49:51.894Z,9.54
2017-05-01T03:50:32.661Z,9.5
2017-05-01T03:51:13.317Z,9.54
2017-05-01T03:51:53.983Z,9.58
2017-05-01T03:52:34.550Z,9.51
2017-05-01T03:53:15.182Z,9.51
2017-05-01T03:53:55.832Z,9.5
2017-05-01T03:54:36.493Z,9.5
2017-05-01T03:55:17.216Z,9.54
2017-05-01T03:55:57.789Z,9.48
2017-05-01T03:56:38.374Z,9.55
2017-05-01T03:57:19.073Z,9.56
2017-05-01T03:57:59.653Z,9.58
2017-05-01T03:58:40.304Z,9.48
2017-05-01T03:59:21.033Z,9.58
2017-05-01T04:00:01.795Z,9.43
2017-05-01T04:00:42.450Z,9.5
2017-05-01T04:01:23.021Z,9.48
2017-05-01T04:02:03.644Z,9.54
2017-05-01T04:02:44.297Z,9.55
2017-05-01T04:03:30.519Z,9.56
2017-05-01T04:04:11.240Z,9.48
2017-05-01T04:04:51.821Z,9.56
2017-05-01T04:05:32.454Z,9.61
2017-05-01T04:06:13.122Z,9.55
2017-05-01T04:06:54.786Z,9.5
2017-05-01T04:07:35.434Z,9.58
2017-05-01T04:08:16.103Z,9.5
2017-05-01T04:08:56.752Z,9.51
2017-05-01T04:09:37.387Z,9.59
2017-05-01T04:10:18.038Z,9.59
2017-05-01T04:10:58.591Z,9.56
2017-05-01T04:11:39.243Z,9.58
2017-05-01T04:12:19.890Z,9.59
2017-05-01T04:13:00.482Z,9.55
2017-05-01T04:13:41.103Z,9.56
2017-05-01T04:14:21.746Z,9.55
2017-05-01T04:15:03.120Z,9.56
2017-05-01T04:15:43.792Z,9.55
2017-05-01T04:16:24.377Z,9.5
2017-05-01T04:17:04.979Z,9.58
2017-05-01T04:17:45.544Z,9.56
2017-05-01T04:18:26.193Z,9.56
2017-05-01T04:19:06.792Z,9.58
2017-05-01T04:19:47.377Z,9.48
2017-05-01T04:20:27.956Z,9.56
2017-05-01T04:21:08.594Z,9.48
2017-05-01T04:21:49.197Z,9.56
2017-05-01T04:22:29.787Z,9.5
2017-05-01T04:23:10.360Z,9.54
2017-05-01T04:23:51.005Z,9.44
2017-05-01T04:24:31.616Z,9.51
2017-05-01T04:25:12.258Z,9.48
2017-05-01T04:25:52.910Z,9.5
2017-05-01T04:26:33.573Z,9.56
2017-05-01T04:27:14.234Z,9.51
2017-05-01T04:27:54.882Z,9.51
2017-05-01T04:28:35.507Z,9.58
2017-05-01T04:29:16.164Z,9.54
2017-05-01T04:29:56.719Z,9.55
2017-05-01T04:30:37.333Z,9.55
2017-05-01T04:31:17.964Z,9.55
2017-05-01T04:31:58.527Z,9.51
2017-05-01T04:32:39.195Z,9.59
2017-05-01T04:33:19.822Z,9.55
2017-05-01T04:34:00.397Z,9.54
2017-05-01T04:34:41.047Z,9.55
2017-05-01T04:35:21.703Z,9.65
2017-05-01T04:36:02.354Z,9.58
2017-05-01T04:36:42.946Z,9.65
2017-05-01T04:37:23.561Z,9.65
2017-05-01T04:38:04.207Z,9.69
2017-05-01T04:38:44.859Z,9.66
2017-05-01T04:39:25.525Z,9.64
2017-05-01T04:40:06.148Z,9.65
2017-05-01T04:40:46.727Z,9.69
2017-05-01T04:41:27.365Z,9.65
2017-05-01T04:42:07.997Z,9.66
2017-05-01T04:42:48.598Z,9.65
2017-05-01T04:43:29.217Z,9.72
2017-05-01T04:44:09.861Z,9.64
2017-05-01T04:44:50.441Z,9.72
2017-05-01T04:45:31.080Z,9.68
2017-05-01T04:46:11.684Z,9.68
2017-05-01T04:46:52.361Z,9.72
2017-05-01T04:47:32.926Z,9.74
2017-05-01T04:48:13.578Z,9.73
2017-05-01T04:48:54.179Z,9.8
2017-05-01T04:49:34.874Z,9.74
2017-05-01T04:50:15.526Z,9.76
2017-05-01T04:50:56.093Z,9.77
2017-05-01T04:51:36.727Z,9.76
2017-05-01T04:52:17.380Z,9.83
2017-05-01T04:52:58.033Z,9.79
2017-05-01T04:53:38.683Z,9.87
2017-05-01T04:54:19.337Z,9.8
2017-05-01T04:54:59.914Z,9.84
2017-05-01T04:55:40.564Z,9.8
2017-05-01T04:56:21.171Z,9.82
2017-05-01T04:57:01.742Z,9.83
2017-05-01T04:57:42.299Z,9.86
2017-05-01T04:58:22.966Z,9.77
2017-05-01T04:59:03.552Z,9.86
2017-05-01T04:59:44.121Z,9.83
2017-05-01T05:00:24.720Z,9.82
2017-05-01T05:01:05.369Z,9.77
2017-05-01T05:01:45.937Z,9.76
2017-05-01T05:02:26.585Z,9.84
2017-05-01T05:03:07.210Z,9.74
2017-05-01T05:03:47.798Z,9.8
2017-05-01T05:04:28.438Z,9.8
2017-05-01T05:05:09.068Z,9.82
2017-05-01T05:05:49.624Z,9.79
2017-05-01T05:06:30.285Z,9.74
2017-05-01T05:07:10.876Z,9.8
2017-05-01T05:07:51.474Z,9.76
2017-05-01T05:08:32.022Z,9.79
2017-05-01T05:09:13.639Z,9.74
2017-05-01T05:09:54.306Z,9.73
2017-05-01T05:10:34.919Z,9.69
2017-05-01T05:11:15.585Z,9.76
2017-05-01T05:11:56.233Z,9.76
2017-05-01T05:12:36.887Z,9.76
2017-05-01T05:13:17.519Z,9.79
2017-05-01T05:13:58.193Z,9.76
2017-05-01T05:14:38.833Z,9.83
2017-05-01T05:15:19.489Z,9.83
2017-05-01T05:16:00.141Z,9.84
2017-05-01T05:16:40.792Z,9.84
2017-05-01T05:17:21.443Z,9.86
2017-05-01T05:18:02.098Z,9.99
2017-05-01T05:18:42.762Z,9.99
2017-05-01T05:19:23.406Z,10.01
2017-05-01T05:20:04.045Z,9.99
2017-05-01T05:20:44.719Z,9.97
2017-05-01T05:21:25.387Z,10.04
2017-05-01T05:22:06.027Z,10.02
2017-05-01T05:22:46.694Z,9.92
2017-05-01T05:23:27.319Z,10.07
2017-05-01T05:24:07.983Z,10.05
2017-05-01T05:24:48.647Z,10.01
2017-05-01T05:25:30.301Z,10.01
2017-05-01T05:26:10.969Z,9.98
2017-05-01T05:26:51.610Z,10.02
2017-05-01T05:27:32.283Z,9.97
2017-05-01T05:28:12.934Z,9.95
2017-05-01T05:28:53.582Z,10.07
2017-05-01T05:29:34.222Z,9.98
2017-05-01T05:30:14.815Z,9.99
2017-05-01T05:30:55.409Z,10.1
2017-05-01T05:31:35.989Z,10.12
2017-05-01T05:32:16.632Z,10.09
2017-05-01T05:32:57.323Z,10.07
2017-05-01T05:33:38.021Z,10.12
2017-05-01T05:34:18.577Z,10.12
2017-05-01T05:34:59.246Z,10.22
2017-05-01T05:35:40.712Z,10.22
2017-05-01T05:36:21.275Z,10.23
2017-05-01T05:37:01.920Z,10.16
2017-05-01T05:37:42.475Z,10.22
2017-05-01T05:38:23.144Z,10.12
2017-05-01T05:39:03.829Z,10.17
2017-05-01T05:39:44.534Z,10.25
2017-05-01T05:40:25.149Z,10.26
2017-05-01T05:41:05.888Z,10.19
2017-05-01T05:41:46.518Z,10.26
2017-05-01T05:42:27.175Z,10.23
2017-05-01T05:43:08.832Z,10.19
2017-05-01T05:43:49.500Z,10.33
2017-05-01T05:44:30.161Z,10.3
2017-05-01T05:45:10.835Z,10.31
2017-05-01T05:45:51.537Z,10.34
2017-05-01T05:46:32.111Z,10.4
2017-05-01T05:47:12.765Z,10.4
2017-05-01T05:47:53.455Z,10.51
2017-05-01T05:48:34.054Z,10.51
2017-05-01T05:49:14.665Z,10.49
2017-05-01T05:49:55.366Z,10.54
2017-05-01T05:50:36.074Z,10.61
2017-05-01T05:51:16.762Z,10.61
2017-05-01T05:51:57.341Z,10.53
2017-05-01T05:52:37.970Z,10.76
2017-05-01T05:53:18.673Z,10.67
2017-05-01T05:53:59.375Z,10.59
2017-05-01T05:54:39.949Z,10.67
2017-05-01T05:55:20.606Z,10.67
2017-05-01T05:56:01.259Z,10.67
2017-05-01T05:56:41.910Z,10.69
2017-05-01T05:57:22.565Z,10.72
2017-05-01T05:58:03.201Z,10.79
2017-05-01T05:58:43.853Z,10.75
2017-05-01T05:59:24.501Z,10.84
2017-05-01T06:00:05.144Z,10.92
2017-05-01T06:00:45.726Z,10.87
2017-05-01T06:01:26.366Z,10.94
2017-05-01T06:02:06.945Z,10.99
2017-05-01T06:02:47.550Z,11.02
2017-05-01T06:03:28.199Z,10.99
2017-05-01T06:04:08.886Z,11.04
2017-05-01T06:04:49.512Z,11
2017-05-01T06:05:30.065Z,10.99
2017-05-01T06:06:10.720Z,11.04
2017-05-01T06:06:51.368Z,11
2017-05-01T06:07:31.949Z,11
2017-05-01T06:08:12.597Z,11.05
2017-05-01T06:08:53.242Z,11
2017-05-01T06:09:33.928Z,10.97
2017-05-01T06:10:14.509Z,11.07
2017-05-01T06:10:55.183Z,11.07
2017-05-01T06:11:35.835Z,11.11
2017-05-01T06:12:16.486Z,11.11
2017-05-01T06:12:57.143Z,11.1
2017-05-01T06:13:37.794Z,11.08
2017-05-01T06:14:18.445Z,11.15
2017-05-01T06:14:59.098Z,11.19
2017-05-01T06:15:39.752Z,11.15
2017-05-01T06:16:20.405Z,11.22
2017-05-01T06:17:01.057Z,11.23
2017-05-01T06:17:41.711Z,11.29
2017-05-01T06:18:23.392Z,11.15
2017-05-01T06:19:04.044Z,11.25
2017-05-01T06:19:44.622Z,11.26
2017-05-01T06:20:25.272Z,11.41
2017-05-01T06:21:06.985Z,11.37
2017-05-01T06:21:47.789Z,11.54
2017-05-01T06:22:28.449Z,11.45
2017-05-01T06:23:09.160Z,11.52
2017-05-01T06:23:49.761Z,11.52
2017-05-01T06:24:30.329Z,11.5
2017-05-01T06:25:10.900Z,11.54
2017-05-01T06:25:51.544Z,11.54
2017-05-01T06:26:32.181Z,11.55
2017-05-01T06:27:12.828Z,11.69
2017-05-01T06:27:53.467Z,11.72
2017-05-01T06:28:34.133Z,11.81
2017-05-01T06:29:14.797Z,11.81
2017-05-01T06:29:55.453Z,11.83
2017-05-01T06:30:36.102Z,11.87
2017-05-01T06:31:16.743Z,11.88
2017-05-01T06:31:57.395Z,11.91
2017-05-01T06:32:38.064Z,11.83
2017-05-01T06:33:18.736Z,11.94
2017-05-01T06:33:59.382Z,11.86
2017-05-01T06:34:40.002Z,11.95
2017-05-01T06:35:20.745Z,11.9
2017-05-01T06:36:01.368Z,11.97
2017-05-01T06:36:41.931Z,12
2017-05-01T06:37:22.515Z,12.04
2017-05-01T06:38:03.232Z,11.99
2017-05-01T06:38:43.724Z,11.97
2017-05-01T06:39:24.394Z,12.07
2017-05-01T06:40:05.011Z,12.1
2017-05-01T06:40:45.595Z,12.1
2017-05-01T06:41:26.256Z,12.13
2017-05-01T06:42:06.929Z,12.12
2017-05-01T06:42:47.626Z,12.13
2017-05-01T06:43:28.203Z,12.1
2017-05-01T06:44:08.835Z,12.13
2017-05-01T06:44:49.434Z,12.1
2017-05-01T06:45:30.036Z,12.09
2017-05-01T06:46:10.611Z,12.13
2017-05-01T06:46:51.184Z,12.15
2017-05-01T06:47:31.819Z,12.27
2017-05-01T06:48:12.469Z,12.25
2017-05-01T06:48:53.123Z,12.22
2017-05-01T06:49:33.758Z,12.31
2017-05-01T06:50:14.422Z,12.28
2017-05-01T06:50:55.057Z,12.35
2017-05-01T06:51:35.638Z,12.31
2017-05-01T06:52:16.284Z,12.43
2017-05-01T06:52:56.911Z,12.39
2017-05-01T06:53:38.003Z,12.4
2017-05-01T06:54:18.571Z,12.32
2017-05-01T06:54:59.237Z,12.5
2017-05-01T06:55:39.884Z,12.5
2017-05-01T06:56:20.546Z,12.6
2017-05-01T06:57:01.192Z,12.55
2017-05-01T06:57:41.845Z,12.57
2017-05-01T06:58:22.497Z,12.65
2017-05-01T06:59:03.061Z,12.65
2017-05-01T06:59:43.763Z,12.7
2017-05-01T07:00:24.421Z,12.67
2017-05-01T07:01:05.069Z,12.64
2017-05-01T07:01:45.728Z,12.65
2017-05-01T07:02:26.289Z,12.64
2017-05-01T07:03:06.930Z,12.75
2017-05-01T07:03:47.591Z,12.75
2017-05-01T07:04:30.300Z,12.85
2017-05-01T07:05:10.925Z,12.83
2017-05-01T07:05:52.619Z,12.86
2017-05-01T07:06:33.277Z,12.93
2017-05-01T07:07:13.912Z,12.87
2017-05-01T07:07:54.572Z,12.94
2017-05-01T07:08:35.244Z,12.98
2017-05-01T07:09:15.993Z,12.98
2017-05-01T07:09:58.688Z,13.11
2017-05-01T07:10:39.332Z,13.13
2017-05-01T07:11:20.010Z,13.08
2017-05-01T07:12:00.644Z,13.23
2017-05-01T07:12:41.306Z,13.25
2017-05-01T07:13:22.970Z,13.25
2017-05-01T07:14:03.626Z,13.38
2017-05-01T07:14:45.307Z,13.38
2017-05-01T07:15:26.992Z,13.46
2017-05-01T07:16:07.663Z,13.59
2017-05-01T07:16:48.387Z,13.63
2017-05-01T07:17:29.033Z,13.65
2017-05-01T07:18:09.695Z,13.72
2017-05-01T07:18:50.346Z,13.75
2017-05-01T07:19:31.013Z,13.75
2017-05-01T07:20:11.776Z,13.79
2017-05-01T07:20:52.341Z,13.75
2017-05-01T07:21:32.961Z,13.83
2017-05-01T07:22:13.612Z,13.81
2017-05-01T07:22:54.264Z,13.79
2017-05-01T07:23:35.941Z,13.85
2017-05-01T07:24:16.594Z,13.86
2017-05-01T07:24:57.272Z,13.92
2017-05-01T07:25:37.936Z,13.97
2017-05-01T07:26:18.506Z,13.99
2017-05-01T07:26:59.106Z,13.99
2017-05-01T07:27:40.761Z,14.08
2017-05-01T07:28:21.422Z,14.14
2017-05-01T07:29:01.988Z,14.15
2017-05-01T07:29:42.641Z,14.2
2017-05-01T07:30:23.229Z,14.18
2017-05-01T07:31:03.821Z,14.22
2017-05-01T07:31:44.394Z,14.32
2017-05-01T07:32:25.098Z,14.33
2017-05-01T07:33:05.742Z,14.29
2017-05-01T07:33:46.334Z,14.33
2017-05-01T07:34:26.893Z,14.43
2017-05-01T07:35:07.569Z,14.41
2017-05-01T07:35:48.200Z,14.47
2017-05-01T07:36:28.859Z,14.44
2017-05-01T07:37:09.533Z,14.41
2017-05-01T07:37:50.176Z,14.41
2017-05-01T07:38:30.813Z,14.51
2017-05-01T07:39:11.484Z,14.62
2017-05-01T07:39:52.138Z,14.53
2017-05-01T07:40:32.758Z,14.62
2017-05-01T07:41:13.349Z,14.59
2017-05-01T07:41:53.995Z,14.58
2017-05-01T07:42:34.616Z,14.55
2017-05-01T07:43:15.204Z,14.62
2017-05-01T07:43:55.955Z,14.63
2017-05-01T07:44:36.575Z,14.58
2017-05-01T07:45:17.158Z,14.66
2017-05-01T07:45:57.808Z,14.55
2017-05-01T07:46:38.387Z,14.58
2017-05-01T07:47:18.984Z,14.59
2017-05-01T07:47:59.565Z,14.6
2017-05-01T07:48:40.205Z,14.54
2017-05-01T07:49:20.809Z,14.54
2017-05-01T07:50:01.457Z,14.43
2017-05-01T07:50:42.044Z,14.47
2017-05-01T07:51:22.622Z,14.4
2017-05-01T07:52:03.266Z,14.37
2017-05-01T07:52:43.857Z,14.4
2017-05-01T07:53:24.457Z,14.37
2017-05-01T07:54:05.041Z,14.28
2017-05-01T07:54:45.675Z,14.29
2017-05-01T07:55:26.262Z,14.22
2017-05-01T07:56:06.962Z,14.28
2017-05-01T07:56:47.558Z,14.28
2017-05-01T07:57:28.179Z,14.23
2017-05-01T07:58:08.774Z,14.25
2017-05-01T07:58:49.377Z,14.17
2017-05-01T07:59:29.956Z,14.25
2017-05-01T08:00:10.695Z,14.25
2017-05-01T08:00:51.293Z,14.25
2017-05-01T08:01:31.862Z,14.11
2017-05-01T08:02:13.482Z,14.17
2017-05-01T08:02:54.175Z,14.26
2017-05-01T08:03:35.818Z,14.28
2017-05-01T08:04:16.351Z,14.2
2017-05-01T08:04:57.012Z,14.25
2017-05-01T08:05:37.730Z,14.2
2017-05-01T08:06:18.361Z,14.22
2017-05-01T08:06:59.003Z,14.26
2017-05-01T08:07:39.654Z,14.37
2017-05-01T08:08:20.316Z,14.43
2017-05-01T08:09:02.918Z,14.43
2017-05-01T08:09:43.563Z,14.45
2017-05-01T08:10:25.252Z,14.5
2017-05-01T08:11:05.920Z,14.53
2017-05-01T08:11:46.551Z,14.44
2017-05-01T08:12:27.203Z,14.58
2017-05-01T08:13:07.857Z,14.55
2017-05-01T08:13:48.564Z,14.62
2017-05-01T08:14:29.256Z,14.58
2017-05-01T08:15:09.918Z,14.62
2017-05-01T08:15:50.594Z,14.69
2017-05-01T08:16:31.221Z,14.7
2017-05-01T08:17:11.874Z,14.68
2017-05-01T08:17:52.483Z,14.7
2017-05-01T08:18:34.192Z,14.69
2017-05-01T08:19:14.831Z,14.7
2017-05-01T08:19:55.502Z,14.81
2017-05-01T08:20:36.174Z,14.81
2017-05-01T08:21:16.762Z,14.77
2017-05-01T08:21:57.325Z,14.86
2017-05-01T08:22:37.995Z,14.86
2017-05-01T08:23:18.681Z,14.79
2017-05-01T08:23:59.371Z,14.89
2017-05-01T08:24:39.954Z,14.97
2017-05-01T08:25:20.609Z,15.02
2017-05-01T08:26:01.276Z,15.03
2017-05-01T08:26:41.913Z,14.97
2017-05-01T08:27:22.547Z,14.92
2017-05-01T08:28:03.205Z,15.1
2017-05-01T08:28:43.873Z,15.04
2017-05-01T08:29:24.505Z,15.07
2017-05-01T08:30:05.224Z,15.11
2017-05-01T08:30:45.900Z,15.19
2017-05-01T08:31:26.590Z,15.27
2017-05-01T08:32:07.155Z,15.25
2017-05-01T08:32:47.881Z,15.36
2017-05-01T08:33:28.442Z,15.43
2017-05-01T08:34:09.091Z,15.43
2017-05-01T08:34:50.732Z,15.62
2017-05-01T08:35:31.385Z,15.67
2017-05-01T08:36:12.009Z,15.64
2017-05-01T08:36:52.607Z,15.77
2017-05-01T08:37:35.227Z,15.84
2017-05-01T08:38:15.882Z,15.86
2017-05-01T08:38:56.512Z,15.94
2017-05-01T08:39:37.208Z,15.98
2017-05-01T08:40:17.840Z,15.94
2017-05-01T08:40:59.643Z,16.01
2017-05-01T08:41:40.261Z,16.15
2017-05-01T08:42:20.923Z,16.17
2017-05-01T08:43:01.568Z,16.33
2017-05-01T08:43:42.223Z,16.29
2017-05-01T08:44:22.873Z,16.43
2017-05-01T08:45:03.536Z,16.42
2017-05-01T08:45:44.169Z,16.54
2017-05-01T08:46:24.842Z,16.53
2017-05-01T08:47:05.531Z,16.47
2017-05-01T08:47:46.245Z,16.49
2017-05-01T08:48:26.922Z,16.54
2017-05-01T08:49:07.551Z,16.56
2017-05-01T08:49:48.196Z,16.54
2017-05-01T08:50:28.865Z,16.58
2017-05-01T08:51:09.501Z,16.58
2017-05-01T08:51:50.162Z,16.6
2017-05-01T08:52:31.870Z,16.57
2017-05-01T08:53:12.446Z,16.56
2017-05-01T08:53:53.038Z,16.54
2017-05-01T08:54:34.574Z,16.57
2017-05-01T08:55:15.309Z,16.5
2017-05-01T08:55:55.948Z,16.49